Time;durP1;ratioP1;P1;durP2;ratioP2;P2;SDS_P1;SDS_P2;PMS_P1;PMS_P2;Temp;Humidity;BMP_temperature;BMP_pressure;BME280_temperature;BME280_humidity;BME280_pressure;Samples;Min_cycle;Max_cycle;Signal;HPM_P1;HPM_P2
2021/11/25 00:00:48;;;;;;;35.03;18.77;;;;;;;0.87;94.36;98239.59;5065351;28;20017;-65
2021/11/25 00:03:13;;;;;;;40.15;18.52;;;;;;;0.92;94.05;98242.25;5065416;28;20024;-65
2021/11/25 00:05:39;;;;;;;39.67;18.63;;;;;;;0.86;94.32;98237.00;5065028;28;20021;-65
2021/11/25 00:08:05;;;;;;;38.35;18.95;;;;;;;0.88;93.94;98230.13;5065104;28;20013;-65
2021/11/25 00:10:31;;;;;;;38.72;19.33;;;;;;;0.88;93.81;98224.94;5064941;28;20319;-65
2021/11/25 00:12:57;;;;;;;43.75;20.00;;;;;;;0.86;94.09;98213.69;5065089;28;20243;-65
2021/11/25 00:15:23;;;;;;;42.72;21.00;;;;;;;0.77;93.93;98206.66;5064831;28;20041;-65
2021/11/25 00:17:49;;;;;;;41.45;20.23;;;;;;;0.64;94.11;98206.50;5065481;28;20319;-65
2021/11/25 00:20:15;;;;;;;42.10;21.55;;;;;;;0.44;94.93;98205.38;5065141;28;20024;-65
2021/11/25 00:22:42;;;;;;;38.75;20.42;;;;;;;0.42;94.85;98194.13;5064691;28;20023;-64
2021/11/25 00:25:08;;;;;;;43.35;20.83;;;;;;;0.34;95.54;98193.16;5064953;28;20342;-65
2021/11/25 00:27:33;;;;;;;41.20;20.40;;;;;;;0.33;95.56;98196.59;5064741;28;20020;-65
2021/11/25 00:29:59;;;;;;;31.70;18.70;;;;;;;0.25;95.65;98191.31;5064675;28;20029;-65
2021/11/25 00:32:24;;;;;;;41.72;21.48;;;;;;;0.28;96.03;98195.69;5064560;28;20037;-65
2021/11/25 00:34:49;;;;;;;40.00;19.77;;;;;;;0.34;95.96;98198.34;5064420;28;20028;-65
2021/11/25 00:37:15;;;;;;;41.20;18.80;;;;;;;0.26;95.95;98192.19;5064761;28;20048;-65
2021/11/25 00:39:41;;;;;;;41.83;19.20;;;;;;;0.36;95.99;98196.63;5064724;28;20043;-65
2021/11/25 00:42:06;;;;;;;39.17;21.02;;;;;;;0.46;95.53;98193.31;5064557;28;20089;-65
2021/11/25 00:44:31;;;;;;;51.08;18.80;;;;;;;0.44;95.18;98195.88;5064576;28;20297;-65
2021/11/25 00:46:57;;;;;;;36.45;17.85;;;;;;;0.39;95.17;98191.50;5064352;28;20088;-65
2021/11/25 00:49:22;;;;;;;36.22;20.30;;;;;;;0.34;95.26;98194.00;5063759;28;20190;-65
2021/11/25 00:51:47;;;;;;;36.10;18.45;;;;;;;0.31;95.52;98185.38;5064268;28;20027;-65
2021/11/25 00:54:13;;;;;;;40.15;19.73;;;;;;;0.44;95.08;98189.84;5064192;28;20240;-65
2021/11/25 00:56:38;;;;;;;38.53;19.45;;;;;;;0.29;95.03;98200.00;5064674;28;20028;-65
2021/11/25 00:59:04;;;;;;;45.33;20.95;;;;;;;0.28;95.55;98198.25;5064777;28;20027;-65
2021/11/25 01:01:29;;;;;;;39.58;19.02;;;;;;;0.36;95.87;98201.81;5064989;28;20123;-65
2021/11/25 01:03:54;;;;;;;39.40;20.40;;;;;;;0.37;95.36;98203.53;5064522;28;20067;-65
2021/11/25 01:06:20;;;;;;;39.53;19.48;;;;;;;0.39;95.39;98209.59;5064416;28;20372;-65
2021/11/25 01:08:45;;;;;;;37.58;19.17;;;;;;;0.54;94.68;98209.81;5064841;28;20186;-65
2021/11/25 01:11:10;;;;;;;36.58;18.42;;;;;;;0.59;94.49;98215.91;5064134;28;20331;-65
2021/11/25 01:13:36;;;;;;;40.70;18.65;;;;;;;0.55;94.08;98208.97;5063858;28;20027;-65
2021/11/25 01:16:01;;;;;;;37.20;17.95;;;;;;;0.50;94.56;98216.66;5064162;28;20041;-65
2021/11/25 01:18:27;;;;;;;35.75;19.55;;;;;;;0.50;94.57;98206.31;5063615;28;20024;-65
2021/11/25 01:20:53;;;;;;;37.47;19.45;;;;;;;0.28;94.77;98209.47;5063890;28;20032;-65
2021/11/25 01:23:28;;;;;;;35.03;19.17;;;;;;;0.37;95.43;98208.72;5063526;28;20025;-65
2021/11/25 01:25:56;;;;;;;41.65;19.65;;;;;;;0.37;95.82;98207.00;5058362;28;20029;-65
2021/11/25 01:28:22;;;;;;;37.35;19.88;;;;;;;0.40;95.38;98213.94;5063549;28;20040;-65
2021/11/25 01:30:51;;;;;;;33.92;18.40;;;;;;;0.40;95.48;98213.94;5063573;28;20204;-65
2021/11/25 01:33:17;;;;;;;35.17;18.80;;;;;;;0.59;95.29;98215.91;5063307;28;20016;-65
2021/11/25 01:35:43;;;;;;;36.17;18.85;;;;;;;0.61;95.38;98215.09;5063467;28;20040;-65
2021/11/25 01:38:09;;;;;;;34.53;18.35;;;;;;;0.62;95.41;98216.84;5063493;28;20017;-65
2021/11/25 01:40:36;;;;;;;35.60;18.30;;;;;;;0.67;94.64;98214.31;5063353;28;20031;-65
2021/11/25 01:43:02;;;;;;;37.05;18.83;;;;;;;0.71;94.70;98218.66;5063352;28;20024;-65
2021/11/25 01:45:28;;;;;;;40.40;20.67;;;;;;;0.76;94.58;98214.41;5063480;28;20212;-65
2021/11/25 01:47:54;;;;;;;36.55;19.35;;;;;;;0.76;94.56;98204.06;5063602;28;20016;-65
2021/11/25 01:50:21;;;;;;;44.28;20.58;;;;;;;0.74;94.80;98205.75;5063219;28;20016;-65
2021/11/25 01:52:47;;;;;;;38.72;20.38;;;;;;;0.70;95.29;98193.63;5063610;28;20024;-65
2021/11/25 01:55:16;;;;;;;44.92;20.98;;;;;;;0.77;95.63;98195.44;5063437;28;20084;-65
2021/11/25 01:57:42;;;;;;;47.10;21.73;;;;;;;0.95;95.52;98195.66;5063443;28;20028;-65
2021/11/25 02:00:13;;;;;;;44.53;21.27;;;;;;;0.95;94.95;98180.94;5063302;28;20017;-65
2021/11/25 02:02:39;;;;;;;37.53;18.98;;;;;;;0.88;94.83;98186.06;5062279;28;20263;-65
2021/11/25 02:05:05;;;;;;;42.78;19.80;;;;;;;0.85;95.14;98183.44;5063331;28;20032;-65
2021/11/25 02:07:30;;;;;;;40.97;18.98;;;;;;;0.98;94.97;98174.97;5063087;28;20320;-65
2021/11/25 02:09:55;;;;;;;42.80;20.13;;;;;;;1.06;94.71;98169.00;5063076;28;20185;-65
2021/11/25 02:12:21;;;;;;;37.05;18.67;;;;;;;1.16;94.23;98169.94;5063669;28;20025;-65
2021/11/25 02:14:46;;;;;;;35.47;18.50;;;;;;;1.12;94.46;98163.88;5063510;28;20332;-65
2021/11/25 02:17:13;;;;;;;40.70;19.65;;;;;;;1.20;94.09;98163.97;5062759;28;20048;-65
2021/11/25 02:19:40;;;;;;;47.72;21.52;;;;;;;1.10;94.65;98164.69;5063243;28;20021;-65
2021/11/25 02:22:05;;;;;;;38.13;19.17;;;;;;;0.98;94.89;98159.41;5062707;28;20064;-65
2021/11/25 02:24:31;;;;;;;37.88;20.27;;;;;;;0.92;94.59;98148.97;5062961;28;20224;-65
2021/11/25 02:26:57;;;;;;;39.17;19.00;;;;;;;0.84;95.06;98143.72;5063302;28;20021;-65
2021/11/25 02:29:22;;;;;;;42.05;19.75;;;;;;;0.86;95.28;98148.91;5062797;28;20328;-65
2021/11/25 02:31:49;;;;;;;44.45;21.40;;;;;;;1.02;95.64;98148.22;5063015;28;20021;-65
2021/11/25 02:34:15;;;;;;;39.28;18.92;;;;;;;1.09;94.43;98153.47;5062771;28;20024;-65
2021/11/25 02:36:40;;;;;;;37.97;20.17;;;;;;;0.99;94.67;98146.47;5063036;28;20055;-65
2021/11/25 02:39:05;;;;;;;46.30;22.48;;;;;;;0.89;95.02;98144.63;5062783;28;20216;-65
2021/11/25 02:41:31;;;;;;;45.33;21.30;;;;;;;0.85;95.44;98129.06;5062711;28;20074;-65
2021/11/25 02:43:57;;;;;;;45.90;22.00;;;;;;;0.85;96.20;98126.47;5062621;28;20033;-65
2021/11/25 02:46:23;;;;;;;46.22;22.13;;;;;;;1.02;95.29;98140.44;5062459;28;20099;-65
2021/11/25 02:48:53;;;;;;;42.33;21.67;;;;;;;0.92;95.35;98134.28;5063167;28;20364;-65
2021/11/25 02:51:22;;;;;;;49.85;20.35;;;;;;;0.98;95.28;98133.50;5062869;28;20084;-65
2021/11/25 02:53:48;;;;;;;41.17;19.63;;;;;;;1.12;94.83;98127.59;5062878;28;20089;-64
2021/11/25 02:56:16;;;;;;;52.67;22.80;;;;;;;1.05;95.02;98124.94;5062770;28;20021;-65
2021/11/25 02:58:44;;;;;;;48.53;21.27;;;;;;;1.14;94.93;98114.66;5062408;28;20029;-65
2021/11/25 03:01:14;;;;;;;52.45;22.38;;;;;;;1.18;94.63;98106.06;5062575;28;20025;-65
2021/11/25 03:03:40;;;;;;;44.88;21.38;;;;;;;1.24;94.91;98108.69;5063260;28;20029;-65
2021/11/25 03:06:05;;;;;;;47.28;21.38;;;;;;;1.31;94.40;98102.69;5063248;28;20036;-65
2021/11/25 03:08:31;;;;;;;47.42;21.95;;;;;;;1.27;94.66;98103.53;5063234;28;20021;-65
2021/11/25 03:11:05;;;;;;;40.28;20.13;;;;;;;1.23;95.17;98096.59;5063185;28;20275;-65
2021/11/25 03:13:32;;;;;;;40.08;20.67;;;;;;;1.33;94.95;98101.00;5065124;28;20029;-65
2021/11/25 03:15:58;;;;;;;42.58;22.52;;;;;;;1.29;94.90;98099.22;5066606;28;20340;-65
2021/11/25 03:18:24;;;;;;;42.80;19.65;;;;;;;1.39;94.80;98106.25;5066869;28;20031;-65
2021/11/25 03:20:52;;;;;;;44.67;20.45;;;;;;;1.36;94.78;98101.03;5066888;28;20020;-65
2021/11/25 03:23:20;;;;;;;47.40;21.65;;;;;;;1.35;95.13;98102.75;5066322;28;20032;-65
2021/11/25 03:25:47;;;;;;;40.38;18.83;;;;;;;1.44;95.15;98099.34;5065914;28;20033;-65
2021/11/25 03:28:14;;;;;;;43.67;20.08;;;;;;;1.49;94.98;98102.84;5065908;28;20024;-65
2021/11/25 03:30:40;;;;;;;43.00;21.38;;;;;;;1.53;94.68;98094.25;5066262;28;20028;-65
2021/11/25 03:33:08;;;;;;;42.53;20.90;;;;;;;1.48;94.48;98093.31;5065811;28;20048;-65
2021/11/25 03:35:34;;;;;;;46.92;20.42;;;;;;;1.25;94.88;98081.91;5065760;28;20031;-65
2021/11/25 03:37:59;;;;;;;44.88;20.85;;;;;;;1.22;95.12;98092.25;5065775;28;20299;-65
2021/11/25 03:40:24;;;;;;;42.95;21.10;;;;;;;1.31;95.79;98089.75;5066278;28;20039;-65
2021/11/25 03:42:50;;;;;;;41.63;20.27;;;;;;;1.40;95.56;98087.22;5066177;28;20321;-65
2021/11/25 03:45:15;;;;;;;46.00;21.83;;;;;;;1.34;95.71;98089.75;5066207;28;20084;-65
2021/11/25 03:47:41;;;;;;;45.88;21.90;;;;;;;1.34;95.44;98092.34;5066193;28;20041;-65
2021/11/25 03:50:09;;;;;;;61.47;24.08;;;;;;;1.24;95.33;98087.97;5066059;28;20033;-65
2021/11/25 03:52:35;;;;;;;45.90;22.67;;;;;;;1.33;95.55;98095.81;5066083;28;20074;-64
2021/11/25 03:55:01;;;;;;;42.95;21.02;;;;;;;1.40;95.23;98089.81;5066054;28;20033;-65
2021/11/25 03:57:26;;;;;;;45.40;21.17;;;;;;;1.46;95.12;98102.84;5066291;28;20204;-65
2021/11/25 03:59:52;;;;;;;46.67;22.83;;;;;;;1.48;95.38;98101.97;5065940;28;20328;-65
2021/11/25 04:02:19;;;;;;;44.60;22.13;;;;;;;1.45;95.42;98095.88;5065871;28;20240;-65
2021/11/25 04:04:45;;;;;;;44.13;21.30;;;;;;;1.50;95.36;98104.59;5065809;28;20048;-65
2021/11/25 04:07:10;;;;;;;49.35;21.63;;;;;;;1.57;95.21;98107.25;5065384;28;20355;-65
2021/11/25 04:09:36;;;;;;;41.28;20.60;;;;;;;1.63;95.02;98106.41;5065386;28;20044;-65
2021/11/25 04:12:01;;;;;;;46.53;21.55;;;;;;;1.51;95.21;98103.72;5064884;28;20021;-65
2021/11/25 04:14:26;;;;;;;42.35;20.80;;;;;;;1.60;95.31;98106.38;5064898;28;20069;-65
2021/11/25 04:16:52;;;;;;;48.67;21.90;;;;;;;1.55;94.66;98102.91;5064927;28;20052;-65
2021/11/25 04:19:17;;;;;;;45.58;21.13;;;;;;;1.45;95.38;98098.47;5065068;28;20046;-65
2021/11/25 04:21:42;;;;;;;39.90;20.98;;;;;;;1.46;95.76;98102.84;5064688;28;20025;-65
2021/11/25 04:24:08;;;;;;;48.50;22.40;;;;;;;1.37;95.69;98089.78;5064119;28;20059;-65
2021/11/25 04:26:33;;;;;;;47.00;21.52;;;;;;;1.48;95.54;98095.91;5064625;28;20083;-65
2021/11/25 04:28:59;;;;;;;51.42;23.63;;;;;;;1.43;95.20;98089.84;5064924;28;20084;-65
2021/11/25 04:36:52;;;;;;;46.05;21.38;;;;;;;1.49;95.83;98087.31;5045277;28;20044;-65
2021/11/25 04:39:18;;;;;;;42.10;20.95;;;;;;;1.63;95.05;98090.84;5045242;28;20347;-65
2021/11/25 04:41:43;;;;;;;41.90;22.48;;;;;;;1.68;94.99;98090.00;5049560;28;20020;-65
2021/11/25 04:44:08;;;;;;;41.83;21.65;;;;;;;1.64;94.95;98092.56;5064503;28;20028;-65
2021/11/25 04:46:35;;;;;;;50.70;22.10;;;;;;;1.66;94.85;98093.47;5064175;28;20032;-65
2021/11/25 04:49:00;;;;;;;50.30;23.33;;;;;;;1.57;95.33;98096.00;5064659;28;20020;-65
2021/11/25 04:51:26;;;;;;;60.35;24.23;;;;;;;1.66;95.59;98088.28;5064342;28;20260;-65
2021/11/25 04:53:51;;;;;;;55.90;24.67;;;;;;;1.70;95.12;98087.44;5064446;28;20074;-65
2021/11/25 04:56:16;;;;;;;45.85;22.10;;;;;;;1.79;94.99;98088.38;5064227;28;20052;-65
2021/11/25 04:58:42;;;;;;;50.60;22.58;;;;;;;1.81;94.48;98083.19;5064323;28;20335;-65
2021/11/25 05:01:08;;;;;;;59.05;25.38;;;;;;;1.93;93.80;98085.88;5064331;28;20028;-65
2021/11/25 05:03:33;;;;;;;63.05;26.17;;;;;;;1.99;92.67;98084.16;5063940;28;20049;-65
2021/11/25 05:05:58;;;;;;;65.30;27.23;;;;;;;2.02;92.51;98091.06;5064157;28;20021;-64
2021/11/25 05:08:24;;;;;;;64.45;27.02;;;;;;;2.03;91.81;98087.66;5063743;28;20025;-64
2021/11/25 05:10:49;;;;;;;62.38;25.65;;;;;;;2.01;91.17;98085.03;5064193;28;20051;-64
2021/11/25 05:13:15;;;;;;;65.10;26.25;;;;;;;1.90;90.93;98075.47;5063865;28;20021;-64
2021/11/25 05:15:40;;;;;;;64.38;27.85;;;;;;;1.89;91.56;98084.09;5063630;28;20067;-64
2021/11/25 05:18:06;;;;;;;67.30;27.92;;;;;;;1.85;91.42;98095.31;5064215;28;20204;-64
2021/11/25 05:20:32;;;;;;;65.80;26.23;;;;;;;1.88;90.56;98095.34;5063643;28;20024;-64
2021/11/25 05:22:57;;;;;;;57.08;25.38;;;;;;;1.89;90.51;98084.09;5063509;28;20070;-64
2021/11/25 05:25:23;;;;;;;56.88;25.67;;;;;;;1.99;90.07;98085.88;5063671;28;20020;-64
2021/11/25 05:27:48;;;;;;;64.00;26.13;;;;;;;1.90;89.09;98083.25;5062537;28;20239;-64
2021/11/25 05:30:14;;;;;;;55.70;23.10;;;;;;;1.92;88.93;98074.59;5062826;28;20021;-65
2021/11/25 05:32:40;;;;;;;58.75;23.80;;;;;;;1.86;89.51;98078.88;5062696;28;20020;-65
2021/11/25 05:35:07;;;;;;;61.63;24.00;;;;;;;1.91;89.24;98082.38;5062712;28;20138;-65
2021/11/25 05:37:34;;;;;;;64.25;25.85;;;;;;;1.95;89.26;98084.13;5062549;28;20027;-65
2021/11/25 05:40:00;;;;;;;57.88;24.58;;;;;;;1.94;88.83;98077.22;5062894;28;20036;-65
2021/11/25 05:42:26;;;;;;;57.17;23.38;;;;;;;1.98;88.77;98068.56;5063207;28;20082;-65
2021/11/25 05:44:51;;;;;;;56.42;25.05;;;;;;;2.01;88.10;98068.59;5063369;28;20021;-65
2021/11/25 05:47:17;;;;;;;48.85;21.10;;;;;;;1.99;88.07;98070.28;5048324;28;20029;-65
2021/11/25 05:49:42;;;;;;;47.88;21.92;;;;;;;1.93;88.38;98081.53;5043121;28;20321;-65
2021/11/25 05:52:07;;;;;;;55.63;22.27;;;;;;;1.76;88.54;98065.00;5043107;28;20384;-65
2021/11/25 05:54:33;;;;;;;47.45;20.23;;;;;;;1.90;87.26;98065.94;5042612;28;20064;-65
2021/11/25 05:56:58;;;;;;;51.00;21.98;;;;;;;1.83;87.23;98069.38;5042995;28;20021;-65
2021/11/25 05:59:23;;;;;;;48.80;20.63;;;;;;;1.85;87.14;98071.97;5043007;28;20083;-65
2021/11/25 06:01:49;;;;;;;53.65;22.88;;;;;;;1.54;87.50;98070.03;5042993;28;20021;-65
2021/11/25 06:04:15;;;;;;;63.15;24.58;;;;;;;1.54;88.20;98064.84;5042883;28;20079;-65
2021/11/25 06:06:40;;;;;;;60.67;26.15;;;;;;;1.60;88.19;98067.47;5043178;28;20063;-65
2021/11/25 06:09:05;;;;;;;55.42;24.70;;;;;;;1.51;88.80;98067.41;5042517;28;20021;-65
2021/11/25 06:11:30;;;;;;;67.60;26.63;;;;;;;1.47;88.96;98068.25;5042872;28;20236;-65
2021/11/25 06:13:56;;;;;;;64.32;25.92;;;;;;;1.48;89.20;98059.63;5043105;28;20084;-65
2021/11/25 06:16:21;;;;;;;59.55;24.98;;;;;;;1.41;88.82;98060.44;5042646;28;20045;-65
2021/11/25 06:18:46;;;;;;;62.33;25.27;;;;;;;1.55;88.41;98057.06;5042851;28;20394;-65
2021/11/25 06:21:12;;;;;;;65.80;26.30;;;;;;;1.58;88.05;98051.06;5042370;28;20025;-65
2021/11/25 06:23:37;;;;;;;62.40;25.30;;;;;;;1.55;88.23;98058.81;5042723;28;20047;-65
2021/11/25 06:26:03;;;;;;;75.70;27.08;;;;;;;1.56;88.77;98057.94;5042753;28;20025;-65
2021/11/25 06:28:28;;;;;;;69.00;28.08;;;;;;;1.60;88.42;98063.19;5042736;28;20067;-65
2021/11/25 06:30:53;;;;;;;67.22;27.58;;;;;;;1.52;88.78;98061.41;5042727;28;20029;-65
2021/11/25 06:33:19;;;;;;;64.03;27.70;;;;;;;1.50;89.08;98063.97;5042546;28;20304;-65
2021/11/25 06:35:44;;;;;;;58.15;24.30;;;;;;;1.65;88.20;98066.66;5042702;28;20029;-65
2021/11/25 06:38:09;;;;;;;66.78;27.05;;;;;;;1.65;88.29;98063.22;5042650;28;20049;-65
2021/11/25 06:40:36;;;;;;;67.75;26.92;;;;;;;1.61;88.05;98062.31;5042646;28;20043;-65
2021/11/25 06:43:05;;;;;;;71.35;27.52;;;;;;;1.62;88.49;98073.56;5042525;28;20030;-65
2021/11/25 06:45:30;;;;;;;70.45;27.13;;;;;;;1.64;88.21;98072.69;5042577;28;20341;-65
2021/11/25 06:47:56;;;;;;;73.07;27.50;;;;;;;1.55;88.72;98076.97;5043643;28;20045;-65
2021/11/25 06:50:23;;;;;;;64.15;27.58;;;;;;;1.55;88.66;98082.16;5046389;28;20217;-65
2021/11/25 06:52:49;;;;;;;68.00;27.33;;;;;;;1.60;88.69;98081.31;5046590;28;20013;-65
2021/11/25 06:55:16;;;;;;;58.50;24.30;;;;;;;1.76;88.01;98077.09;5046290;28;20025;-65
2021/11/25 06:57:43;;;;;;;70.65;28.33;;;;;;;1.65;88.76;98076.19;5046237;28;20028;-65
2021/11/25 07:00:13;;;;;;;67.15;26.52;;;;;;;1.72;88.92;98067.56;5045776;28;20025;-65
2021/11/25 07:02:39;;;;;;;75.72;27.88;;;;;;;1.74;88.39;98068.47;5046357;28;20421;-65
2021/11/25 07:05:05;;;;;;;65.20;26.63;;;;;;;1.70;88.38;98087.44;5046009;28;20021;-65
2021/11/25 07:07:31;;;;;;;72.72;27.48;;;;;;;1.75;88.23;98080.56;5046286;28;20319;-65
2021/11/25 07:09:57;;;;;;;71.13;27.50;;;;;;;1.71;88.43;98079.66;5046291;28;20071;-65
2021/11/25 07:12:23;;;;;;;69.75;27.05;;;;;;;1.71;88.57;98089.19;5045494;28;20314;-65
2021/11/25 07:14:48;;;;;;;65.70;25.60;;;;;;;1.85;88.08;98088.41;5045896;28;20025;-65
2021/11/25 07:17:14;;;;;;;65.15;27.63;;;;;;;1.84;88.07;98091.00;5045665;28;20049;-65
2021/11/25 07:19:39;;;;;;;71.15;26.63;;;;;;;1.75;88.31;98101.31;5045825;28;20037;-65
2021/11/25 07:22:04;;;;;;;68.25;27.48;;;;;;;1.76;88.14;98103.03;5045922;28;20081;-65
2021/11/25 07:24:30;;;;;;;70.18;27.08;;;;;;;1.81;88.10;98107.38;5045974;28;20032;-65
2021/11/25 07:26:55;;;;;;;70.85;28.10;;;;;;;1.89;87.78;98104.84;5045338;28;20059;-65
2021/11/25 07:29:22;;;;;;;75.63;29.77;;;;;;;1.83;87.65;98105.69;5045630;28;20078;-65
2021/11/25 07:31:48;;;;;;;71.85;27.35;;;;;;;1.83;87.57;98104.81;5045580;28;20025;-65
2021/11/25 07:34:13;;;;;;;87.10;30.48;;;;;;;1.64;88.29;98105.53;5045564;28;20047;-65
2021/11/25 07:36:39;;;;;;;69.55;28.35;;;;;;;1.74;88.42;98108.22;5045550;28;20030;-65
2021/11/25 07:39:04;;;;;;;75.25;30.73;;;;;;;1.77;88.05;98094.41;5045105;28;20198;-65
2021/11/25 07:41:31;;;;;;;78.60;30.05;;;;;;;1.80;87.88;98084.03;5045414;28;20025;-65
2021/11/25 07:43:57;;;;;;;72.88;28.42;;;;;;;1.72;87.80;98085.72;5045329;28;20026;-65
2021/11/25 07:46:22;;;;;;;69.32;26.48;;;;;;;1.57;88.53;98091.69;5045362;28;20025;-65
2021/11/25 07:48:47;;;;;;;77.60;28.42;;;;;;;1.68;88.47;98090.00;5045295;28;20049;-65
2021/11/25 07:51:13;;;;;;;74.55;27.63;;;;;;;1.77;88.67;98079.69;5045274;28;20343;-65
2021/11/25 07:53:38;;;;;;;79.32;29.45;;;;;;;1.76;88.51;98077.09;5045025;28;20017;-65
2021/11/25 07:56:04;;;;;;;76.25;27.38;;;;;;;1.78;88.28;98086.63;5045133;28;20317;-65
2021/11/25 07:58:29;;;;;;;77.85;28.88;;;;;;;1.73;88.27;98097.81;5045288;28;20106;-65
2021/11/25 08:00:56;;;;;;;77.13;28.00;;;;;;;1.59;88.54;98099.47;5045087;28;20383;-65
2021/11/25 08:03:22;;;;;;;74.00;28.13;;;;;;;1.65;88.51;98099.53;5056569;28;20048;-65
2021/11/25 08:05:47;;;;;;;76.20;28.25;;;;;;;1.70;88.39;98098.69;5064845;28;20335;-65
2021/11/25 08:08:12;;;;;;;79.10;28.92;;;;;;;1.74;88.02;98105.63;5057139;28;20273;-65
2021/11/25 08:10:38;;;;;;;71.43;27.58;;;;;;;1.93;87.60;98101.44;5055353;28;20025;-65
2021/11/25 08:13:04;;;;;;;79.57;29.63;;;;;;;1.82;87.86;98100.47;5053173;28;20080;-65
2021/11/25 08:15:31;;;;;;;68.18;24.65;;;;;;;1.96;87.84;98117.00;5051952;28;20364;-65
2021/11/25 08:17:57;;;;;;;61.30;26.23;;;;;;;1.86;88.09;98115.19;5054304;28;20091;-65
2021/11/25 08:20:22;;;;;;;75.63;31.00;;;;;;;1.86;87.93;98128.19;5054805;28;20029;-65
2021/11/25 08:22:48;;;;;;;70.75;28.08;;;;;;;2.01;87.36;98141.25;5053681;28;20025;-65
2021/11/25 08:25:13;;;;;;;69.75;26.52;;;;;;;1.93;87.39;98148.13;5064925;28;20253;-65
2021/11/25 08:27:39;;;;;;;71.88;28.92;;;;;;;1.84;87.64;98150.66;5065720;28;20021;-65
2021/11/25 08:30:07;;;;;;;70.88;29.00;;;;;;;1.89;87.84;98156.75;5065389;28;20032;-65
2021/11/25 08:32:33;;;;;;;62.95;25.75;;;;;;;1.87;87.42;98153.28;5065286;28;20044;-65
2021/11/25 08:34:59;;;;;;;64.18;26.63;;;;;;;1.93;86.85;98141.19;5059341;28;20422;-65
2021/11/25 08:37:24;;;;;;;74.45;27.95;;;;;;;1.93;87.37;98127.38;5050615;28;20021;-65
2021/11/25 08:39:50;;;;;;;70.68;27.80;;;;;;;1.94;87.62;98126.50;5057274;28;20260;-65
2021/11/25 08:42:15;;;;;;;56.50;22.77;;;;;;;2.11;87.29;98128.34;5065145;28;20216;-65
2021/11/25 08:44:40;;;;;;;58.03;23.10;;;;;;;2.19;87.05;98121.44;5065069;28;20029;-65
2021/11/25 08:47:06;;;;;;;55.42;22.30;;;;;;;2.09;87.52;98113.63;5065104;28;20028;-65
2021/11/25 08:49:31;;;;;;;60.40;24.55;;;;;;;2.02;87.78;98117.03;5065275;28;20082;-65
2021/11/25 08:51:57;;;;;;;51.70;22.55;;;;;;;2.13;87.11;98120.56;5064950;28;20048;-65
2021/11/25 08:54:23;;;;;;;55.08;22.48;;;;;;;1.99;86.33;98117.00;5065184;28;20297;-64
2021/11/25 08:56:50;;;;;;;53.92;23.45;;;;;;;1.89;87.16;98120.41;5064990;28;20052;-64
2021/11/25 08:59:16;;;;;;;55.42;23.38;;;;;;;1.88;87.98;98113.50;5064814;28;20029;-64
2021/11/25 09:01:41;;;;;;;49.85;20.48;;;;;;;2.02;87.15;98117.03;5064626;28;20382;-64
2021/11/25 09:04:07;;;;;;;64.28;23.80;;;;;;;1.95;87.28;98105.75;5064563;28;20021;-64
2021/11/25 09:06:32;;;;;;;51.88;20.88;;;;;;;2.02;87.66;98106.66;5064972;28;20024;-64
2021/11/25 09:08:58;;;;;;;57.10;21.77;;;;;;;2.10;87.49;98104.97;5064617;28;20028;-64
2021/11/25 09:11:24;;;;;;;60.95;23.50;;;;;;;2.07;87.02;98107.56;5064401;28;20025;-64
2021/11/25 09:13:49;;;;;;;55.03;22.55;;;;;;;2.00;87.19;98108.38;5064520;28;20273;-64
2021/11/25 09:16:17;;;;;;;52.40;22.90;;;;;;;2.06;87.18;98103.22;5064398;28;20045;-64
2021/11/25 09:18:42;;;;;;;49.10;20.10;;;;;;;2.00;87.38;98092.81;5064740;28;20262;-64
2021/11/25 09:21:07;;;;;;;57.65;23.90;;;;;;;2.05;87.24;98091.09;5064415;28;20029;-64
2021/11/25 09:23:33;;;;;;;51.75;21.77;;;;;;;2.07;87.21;98097.16;5064322;28;20048;-64
2021/11/25 09:25:58;;;;;;;58.78;24.75;;;;;;;2.12;87.02;98098.06;5062438;28;20035;-64
2021/11/25 09:28:25;;;;;;;52.72;22.05;;;;;;;2.20;87.07;98101.56;5064582;28;20029;-64
2021/11/25 09:30:51;;;;;;;56.72;22.13;;;;;;;2.07;87.48;98094.56;5064541;28;20024;-64
2021/11/25 09:33:18;;;;;;;59.83;24.05;;;;;;;2.09;87.85;98090.28;5064516;28;20090;-64
2021/11/25 09:35:43;;;;;;;57.28;22.70;;;;;;;2.29;87.52;98086.03;5064235;28;20035;-64
2021/11/25 09:38:11;;;;;;;51.03;22.05;;;;;;;2.29;86.64;98083.44;5064185;28;20052;-64
2021/11/25 09:40:38;;;;;;;42.65;18.95;;;;;;;2.45;85.94;98086.94;5064106;28;20088;-65
2021/11/25 09:43:08;;;;;;;46.65;19.75;;;;;;;2.36;85.80;98077.41;5064040;28;20084;-65
2021/11/25 09:45:36;;;;;;;55.75;19.77;;;;;;;2.21;86.21;98083.41;5064042;28;20035;-64
2021/11/25 09:48:05;;;;;;;39.28;17.58;;;;;;;2.27;86.64;98082.56;5064289;28;20036;-64
2021/11/25 09:50:33;;;;;;;52.97;22.65;;;;;;;2.09;87.41;98095.47;5063980;28;20049;-64
2021/11/25 09:53:01;;;;;;;50.05;20.17;;;;;;;2.06;87.48;98092.84;5063967;28;20070;-64
2021/11/25 09:55:27;;;;;;;52.13;23.08;;;;;;;2.17;87.18;98097.22;5064168;28;20220;-64
2021/11/25 09:57:53;;;;;;;55.72;21.75;;;;;;;2.08;87.40;98091.13;5063792;28;20091;-64
2021/11/25 10:00:21;;;;;;;49.53;20.33;;;;;;;2.27;87.64;98087.75;5064114;28;20066;-64
2021/11/25 10:02:46;;;;;;;49.38;20.20;;;;;;;2.35;86.93;98091.25;5063702;28;20033;-64
2021/11/25 10:05:12;;;;;;;49.90;19.77;;;;;;;2.33;86.98;98087.78;5063812;28;20055;-64
2021/11/25 10:07:41;;;;;;;47.38;19.90;;;;;;;2.48;86.90;98092.16;5063822;28;20029;-64
2021/11/25 10:10:24;;;;;;;45.35;19.98;;;;;;;2.45;86.18;98093.03;5063756;28;20084;-64
2021/11/25 10:12:54;;;;;;;52.00;21.02;;;;;;;2.45;86.97;98092.13;5064024;28;20021;-64
2021/11/25 10:15:30;;;;;;;43.53;19.20;;;;;;;2.50;86.65;98093.88;5063588;28;20388;-64
2021/11/25 10:18:00;;;;;;;52.45;21.20;;;;;;;2.56;86.57;98088.72;5064016;28;20023;-64
2021/11/25 10:20:33;;;;;;;52.58;21.63;;;;;;;2.61;85.59;98093.94;5063742;28;20031;-64
2021/11/25 10:23:01;;;;;;;42.08;18.15;;;;;;;2.67;85.72;98089.63;5064932;28;20025;-64
2021/11/25 10:25:49;;;;;;;44.45;18.65;;;;;;;2.70;85.16;98081.84;5068008;28;20028;-64
2021/11/25 10:28:26;;;;;;;39.92;16.52;;;;;;;2.75;85.01;98081.84;5067954;28;20324;-64
2021/11/25 10:30:57;;;;;;;45.53;20.23;;;;;;;2.67;85.07;98084.44;5067682;28;20058;-64
2021/11/25 10:33:27;;;;;;;45.70;18.92;;;;;;;2.79;85.05;98083.59;5067922;28;20048;-64
2021/11/25 10:41:19;;;;;;;48.63;20.83;;;;;;;2.77;86.28;98070.59;5067529;28;20028;-64
2021/11/25 10:43:44;;;;;;;41.85;18.05;;;;;;;2.75;85.70;98067.13;5067370;28;20021;-64
2021/11/25 10:46:10;;;;;;;48.88;21.70;;;;;;;2.73;85.83;98074.06;5067367;28;20317;-64
2021/11/25 10:48:40;;;;;;;42.80;19.42;;;;;;;2.90;85.66;98077.56;5067472;28;20036;-64
2021/11/25 10:51:25;;;;;;;49.53;18.90;;;;;;;2.85;85.96;98081.84;5067541;28;20363;-64
2021/11/25 10:54:05;;;;;;;46.40;19.27;;;;;;;2.89;84.90;98082.75;5067222;28;20084;-64
2021/11/25 10:56:43;;;;;;;52.85;22.75;;;;;;;2.77;85.17;98081.00;5067290;28;20029;-64
2021/11/25 10:59:13;;;;;;;48.30;21.38;;;;;;;2.83;85.21;98081.00;5067401;28;20021;-64
2021/11/25 11:01:50;;;;;;;47.67;20.88;;;;;;;2.75;84.91;98087.91;5067094;28;20028;-64
2021/11/25 11:04:17;;;;;;;45.53;18.83;;;;;;;2.85;84.93;98084.47;5066946;28;20276;-64
2021/11/25 11:06:43;;;;;;;42.28;18.15;;;;;;;2.98;83.82;98081.03;5067269;28;20324;-64
2021/11/25 11:09:29;;;;;;;46.03;19.52;;;;;;;2.95;85.23;98083.63;5066927;28;20066;-64
2021/11/25 11:12:25;;;;;;;46.20;19.13;;;;;;;3.11;84.60;98082.78;5066925;28;20051;-65
2021/11/25 11:14:56;;;;;;;44.85;20.45;;;;;;;3.17;84.83;98076.72;5063634;28;20216;-65
2021/11/25 11:17:28;;;;;;;54.25;23.55;;;;;;;3.17;84.72;98082.81;5055252;28;20261;-65
2021/11/25 11:20:05;;;;;;;42.83;19.60;;;;;;;2.99;84.29;98082.75;5062920;28;20024;-65
2021/11/25 11:22:32;;;;;;;43.00;18.33;;;;;;;3.03;84.51;98078.41;5063680;28;20371;-64
2021/11/25 11:24:57;;;;;;;47.05;20.02;;;;;;;3.11;83.86;98072.38;5056040;28;20032;-65
2021/11/25 11:27:23;;;;;;;41.72;18.90;;;;;;;3.15;84.26;98068.03;5065436;28;20021;-65
2021/11/25 11:29:48;;;;;;;49.10;21.52;;;;;;;3.00;85.14;98068.06;5065411;28;20052;-65
2021/11/25 11:32:14;;;;;;;43.72;19.92;;;;;;;3.10;84.77;98065.44;5065423;28;20379;-65